Time;durP1;ratioP1;P1;durP2;ratioP2;P2;SDS_P1;SDS_P2;PMS_P1;PMS_P2;Temp;Humidity;BMP_temperature;BMP_pressure;BME280_temperature;BME280_humidity;BME280_pressure;Samples;Min_cycle;Max_cycle;Signal;HPM_P1;HPM_P2
2022/08/25 00:01:46;;;;;;;403.47;379.80;;;17.80;99.90;;;;;;5007515;28;20184;-77
2022/08/25 00:04:15;;;;;;;401.60;378.10;;;17.80;99.90;;;;;;5010245;28;20190;-79
2022/08/25 00:06:42;;;;;;;371.80;350.17;;;17.80;99.90;;;;;;5008012;28;20208;-78
2022/08/25 00:09:10;;;;;;;372.47;350.57;;;17.70;99.90;;;;;;5005622;28;20551;-79
2022/08/25 00:11:38;;;;;;;336.33;317.58;;;17.60;99.90;;;;;;5009384;28;20669;-79
2022/08/25 00:14:08;;;;;;;280.43;264.67;;;17.60;99.90;;;;;;5008746;28;20181;-76
2022/08/25 00:16:34;;;;;;;243.30;229.33;;;17.60;99.90;;;;;;5007576;28;20661;-76
2022/08/25 00:19:05;;;;;;;241.10;227.77;;;17.50;99.90;;;;;;5006693;28;20220;-79
2022/08/25 00:21:31;;;;;;;230.10;217.53;;;17.50;99.90;;;;;;5009740;28;20188;-79
2022/08/25 00:23:58;;;;;;;239.35;226.02;;;17.50;99.90;;;;;;5009831;28;20195;-79
2022/08/25 00:26:26;;;;;;;373.73;352.10;;;17.50;99.90;;;;;;5007308;28;20220;-78
2022/08/25 00:28:52;;;;;;;283.73;268.10;;;17.50;99.90;;;;;;5007118;28;20196;-77
2022/08/25 00:31:20;;;;;;;275.07;260.30;;;17.50;99.90;;;;;;5006911;28;20184;-77
2022/08/25 00:33:47;;;;;;;290.17;274.43;;;17.50;99.90;;;;;;5007158;28;20181;-77
2022/08/25 00:36:15;;;;;;;291.33;275.90;;;17.50;99.90;;;;;;5007165;28;20639;-79
2022/08/25 00:38:43;;;;;;;284.63;269.30;;;17.40;99.90;;;;;;5004406;28;20577;-77
2022/08/25 00:41:14;;;;;;;348.67;329.43;;;17.40;99.90;;;;;;5005021;28;20599;-78
2022/08/25 00:43:39;;;;;;;495.73;465.17;;;17.40;99.90;;;;;;5005870;28;20185;-78
2022/08/25 00:46:06;;;;;;;539.37;505.23;;;17.40;99.90;;;;;;5005396;28;20235;-79
2022/08/25 00:48:33;;;;;;;612.07;571.47;;;17.30;99.90;;;;;;5005598;28;20692;-77
2022/08/25 00:51:01;;;;;;;659.60;615.47;;;17.30;99.90;;;;;;5006120;28;20177;-77
2022/08/25 00:53:28;;;;;;;579.60;541.83;;;17.30;99.90;;;;;;5005273;28;20208;-76
2022/08/25 00:55:57;;;;;;;574.43;536.80;;;17.30;99.90;;;;;;5006238;28;20263;-77
2022/08/25 00:58:26;;;;;;;555.10;519.43;;;17.30;99.90;;;;;;5004389;28;20211;-77
2022/08/25 01:00:55;;;;;;;626.57;585.43;;;17.20;99.90;;;;;;5007692;28;20283;-78
2022/08/25 01:03:23;;;;;;;569.63;532.80;;;17.20;99.90;;;;;;5009603;28;20288;-78
2022/08/25 01:05:50;;;;;;;542.07;507.40;;;17.20;99.90;;;;;;5008330;28;20185;-79
2022/08/25 01:08:19;;;;;;;567.17;530.73;;;17.20;99.90;;;;;;4998952;28;20300;-78
2022/08/25 01:10:47;;;;;;;486.77;456.30;;;17.10;99.90;;;;;;4994257;28;20180;-78
2022/08/25 01:13:22;;;;;;;594.13;555.60;;;17.10;99.90;;;;;;4994816;28;20180;-76
2022/08/25 01:15:53;;;;;;;513.97;481.07;;;17.20;99.90;;;;;;4996799;28;20184;-77
2022/08/25 01:18:19;;;;;;;474.93;445.77;;;17.10;99.90;;;;;;5006554;28;20235;-78
2022/08/25 01:20:50;;;;;;;423.90;398.03;;;17.10;99.90;;;;;;5007412;28;20204;-78
2022/08/25 01:23:17;;;;;;;277.63;261.43;;;17.10;99.90;;;;;;5006921;28;20184;-77
2022/08/25 01:26:03;;;;;;;261.13;245.63;;;17.10;99.90;;;;;;5006221;28;20195;-79
2022/08/25 01:28:29;;;;;;;326.73;307.50;;;17.10;99.90;;;;;;5005810;28;20207;-77
2022/08/25 01:30:55;;;;;;;395.10;372.03;;;17.10;99.90;;;;;;5006937;28;20188;-78
2022/08/25 01:33:21;;;;;;;255.03;240.30;;;17.00;99.90;;;;;;5007562;28;20192;-76
2022/08/25 01:35:49;;;;;;;198.60;187.63;;;17.00;99.90;;;;;;5007759;28;20204;-78
2022/08/25 01:38:15;;;;;;;343.87;324.63;;;17.00;99.90;;;;;;5007911;28;20215;-78
2022/08/25 01:40:41;;;;;;;195.80;184.90;;;17.00;99.90;;;;;;5008073;28;20207;-78
2022/08/25 01:43:12;;;;;;;137.93;130.33;;;17.10;99.90;;;;;;5006367;28;20184;-77
2022/08/25 01:45:40;;;;;;;78.50;74.33;;;17.10;99.90;;;;;;5006549;28;20192;-76
2022/08/25 01:48:07;;;;;;;70.33;66.63;;;17.10;99.90;;;;;;5007107;28;20239;-78
2022/08/25 01:50:34;;;;;;;90.30;85.70;;;17.00;99.90;;;;;;5007165;28;20187;-77
2022/08/25 01:53:13;;;;;;;86.33;81.97;;;17.00;99.90;;;;;;5006585;28;20188;-78
2022/08/25 01:55:51;;;;;;;109.47;103.57;;;17.00;99.90;;;;;;5007269;28;20180;-77
2022/08/25 01:58:26;;;;;;;108.57;102.97;;;16.90;99.90;;;;;;5005427;28;20266;-80
2022/08/25 02:00:54;;;;;;;105.70;100.30;;;16.90;99.90;;;;;;5005915;28;20211;-78
2022/08/25 02:03:21;;;;;;;111.87;106.13;;;16.80;99.90;;;;;;5007287;28;20862;-78
2022/08/25 02:05:47;;;;;;;72.27;68.47;;;16.80;99.90;;;;;;5004561;28;20180;-77
2022/08/25 02:08:13;;;;;;;44.30;41.90;;;16.80;99.90;;;;;;5003737;28;20586;-78
2022/08/25 02:10:40;;;;;;;72.43;68.57;;;16.70;99.90;;;;;;5002925;28;20664;-76
2022/08/25 02:13:07;;;;;;;94.17;89.37;;;16.70;99.90;;;;;;5005746;28;20219;-77
2022/08/25 02:15:34;;;;;;;102.43;97.17;;;16.70;99.90;;;;;;5007821;28;20246;-78
2022/08/25 02:18:00;;;;;;;45.60;43.20;;;16.60;99.90;;;;;;5005405;28;20721;-77
2022/08/25 02:20:26;;;;;;;49.10;46.40;;;16.60;99.90;;;;;;5007729;28;20224;-78
2022/08/25 02:22:52;;;;;;;50.60;48.00;;;16.60;99.90;;;;;;5006100;28;20191;-77
2022/08/25 02:25:19;;;;;;;46.43;44.03;;;16.60;99.90;;;;;;5006825;28;20271;-78
2022/08/25 02:27:45;;;;;;;38.37;36.27;;;16.60;99.90;;;;;;5007410;28;20240;-79
2022/08/25 02:30:15;;;;;;;30.03;28.20;;;16.60;99.90;;;;;;5004214;28;20192;-77
2022/08/25 02:32:41;;;;;;;35.93;33.97;;;16.50;99.90;;;;;;5003529;28;20188;-77
2022/08/25 02:35:08;;;;;;;22.27;20.90;;;16.40;99.90;;;;;;5002909;28;20187;-77
2022/08/25 02:37:35;;;;;;;26.30;24.80;;;16.40;99.90;;;;;;5006024;28;20218;-79
2022/08/25 02:40:02;;;;;;;34.00;32.17;;;16.40;99.90;;;;;;5006808;28;20207;-79
2022/08/25 02:42:30;;;;;;;23.67;22.30;;;16.40;99.90;;;;;;5005386;28;20207;-79
2022/08/25 02:44:56;;;;;;;15.87;14.87;;;16.40;99.90;;;;;;5005205;28;20180;-77
2022/08/25 02:47:22;;;;;;;17.30;16.20;;;16.40;99.90;;;;;;4994952;28;20593;-77
2022/08/25 02:49:48;;;;;;;14.90;13.90;;;16.30;99.90;;;;;;4992526;28;20187;-77
2022/08/25 02:52:14;;;;;;;18.27;17.20;;;16.40;99.90;;;;;;4996997;28;20195;-77
2022/08/25 02:54:40;;;;;;;19.67;18.03;;;16.30;99.90;;;;;;4998761;28;20180;-78
2022/08/25 02:57:06;;;;;;;18.23;17.07;;;16.30;99.90;;;;;;4999123;28;20187;-77
2022/08/25 02:59:34;;;;;;;17.27;16.03;;;16.30;99.90;;;;;;5006918;28;20196;-77
2022/08/25 03:02:00;;;;;;;18.53;17.30;;;16.30;99.90;;;;;;5013548;28;20199;-78
2022/08/25 03:04:27;;;;;;;18.67;17.17;;;16.30;99.90;;;;;;5010423;28;20188;-78
2022/08/25 03:06:54;;;;;;;22.83;21.40;;;16.30;99.90;;;;;;5010105;28;20214;-78
2022/08/25 03:09:20;;;;;;;17.33;16.33;;;16.30;99.90;;;;;;5009950;28;20192;-79
2022/08/25 03:11:46;;;;;;;19.83;18.63;;;16.20;99.90;;;;;;5010013;28;20184;-79
2022/08/25 03:14:12;;;;;;;15.20;14.10;;;16.20;99.90;;;;;;5012274;28;20206;-79
2022/08/25 03:16:38;;;;;;;15.87;14.83;;;16.20;99.90;;;;;;5010790;28;20234;-78
2022/08/25 03:19:04;;;;;;;25.67;24.13;;;16.10;99.90;;;;;;5012095;28;20238;-78
2022/08/25 03:21:31;;;;;;;17.63;16.47;;;16.10;99.90;;;;;;5014156;28;20284;-79
2022/08/25 03:23:58;;;;;;;14.93;13.97;;;16.10;99.90;;;;;;5013258;28;20180;-79
2022/08/25 03:29:10;;;;;;;18.90;17.70;;;16.00;99.90;;;;;;4998564;28;20207;-75
2022/08/25 03:31:36;;;;;;;33.87;31.97;;;16.00;99.90;;;;;;4999392;28;20180;-75
2022/08/25 03:34:03;;;;;;;83.27;78.73;;;16.00;99.90;;;;;;4998378;28;20184;-75
2022/08/25 03:36:29;;;;;;;89.27;84.40;;;16.00;99.90;;;;;;4997238;28;20834;-75
2022/08/25 03:38:54;;;;;;;34.57;32.23;;;16.00;99.90;;;;;;5016225;23;20239;-76
2022/08/25 03:41:24;;;;;;;22.27;20.80;;;15.90;99.90;;;;;;5017697;28;20186;-77
2022/08/25 03:43:50;;;;;;;56.93;53.63;;;15.90;99.90;;;;;;5016144;28;20190;-76
2022/08/25 03:46:37;;;;;;;64.57;60.90;;;15.80;99.90;;;;;;5017274;28;20294;-76
2022/08/25 03:49:05;;;;;;;29.17;27.37;;;15.90;99.90;;;;;;5004488;28;20203;-75
2022/08/25 03:51:34;;;;;;;22.73;21.23;;;15.90;99.90;;;;;;4997786;28;20798;-75
2022/08/25 03:54:01;;;;;;;20.73;19.47;;;15.90;99.90;;;;;;4997763;28;20180;-75
2022/08/25 03:56:27;;;;;;;25.07;23.67;;;15.90;99.90;;;;;;4997796;28;20180;-77
2022/08/25 03:58:54;;;;;;;22.77;21.40;;;15.90;99.90;;;;;;4996808;28;20201;-76
2022/08/25 04:01:20;;;;;;;23.60;22.17;;;15.80;99.90;;;;;;4996592;28;20242;-75
2022/08/25 04:03:46;;;;;;;25.73;24.00;;;15.80;99.90;;;;;;4992502;28;20192;-75
2022/08/25 04:06:14;;;;;;;28.40;26.63;;;15.70;99.90;;;;;;4993268;28;20238;-75
2022/08/25 04:08:40;;;;;;;63.80;60.00;;;15.70;99.90;;;;;;4988610;28;20244;-76
2022/08/25 04:11:25;;;;;;;86.93;81.77;;;15.60;99.90;;;;;;4994573;28;20672;-75
2022/08/25 04:13:54;;;;;;;57.57;54.50;;;15.60;99.90;;;;;;4993155;28;20191;-76
2022/08/25 04:16:26;;;;;;;64.20;60.57;;;15.50;99.90;;;;;;4992348;28;20184;-76
2022/08/25 04:18:55;;;;;;;47.63;44.97;;;15.50;99.90;;;;;;4992620;28;20204;-76
2022/08/25 04:21:22;;;;;;;50.20;47.43;;;15.50;99.90;;;;;;4992955;28;20180;-75
2022/08/25 04:23:48;;;;;;;69.37;65.37;;;15.50;99.90;;;;;;4993357;28;20604;-76
2022/08/25 04:26:19;;;;;;;76.20;71.80;;;15.50;99.90;;;;;;4993886;28;20216;-75
2022/08/25 04:28:45;;;;;;;66.63;62.97;;;15.50;99.90;;;;;;4991450;28;20204;-75
2022/08/25 04:31:13;;;;;;;42.27;39.50;;;15.40;99.90;;;;;;4992738;28;20203;-75
2022/08/25 04:33:40;;;;;;;38.43;36.03;;;15.40;99.90;;;;;;4996891;28;20610;-75
2022/08/25 04:36:10;;;;;;;64.77;61.23;;;15.40;99.90;;;;;;4993784;28;20176;-76
2022/08/25 04:38:37;;;;;;;57.07;53.87;;;15.40;99.90;;;;;;4991783;28;20220;-75
2022/08/25 04:41:04;;;;;;;62.03;58.53;;;15.40;99.90;;;;;;4993725;28;20177;-75
2022/08/25 04:43:31;;;;;;;59.70;55.10;;;15.40;99.90;;;;;;4993405;28;20260;-74
2022/08/25 04:45:58;;;;;;;49.50;46.50;;;15.40;99.90;;;;;;4992174;28;20219;-80
2022/08/25 04:48:24;;;;;;;30.40;27.50;;;15.40;99.90;;;;;;4997319;28;20265;-77
2022/08/25 04:50:50;;;;;;;30.07;27.87;;;15.50;99.90;;;;;;5012164;28;20183;-77
2022/08/25 04:53:16;;;;;;;37.57;35.07;;;15.40;99.90;;;;;;5011552;28;20183;-77
2022/08/25 04:55:47;;;;;;;51.43;48.13;;;15.50;99.90;;;;;;5013027;28;20183;-78
2022/08/25 04:58:15;;;;;;;66.77;62.57;;;15.60;99.90;;;;;;5013084;28;20578;-78
2022/08/25 05:00:42;;;;;;;72.17;67.83;;;15.60;99.90;;;;;;5013217;28;20271;-79
2022/08/25 05:03:09;;;;;;;35.97;33.77;;;15.70;99.90;;;;;;5011760;28;20202;-79
2022/08/25 05:05:36;;;;;;;37.87;35.73;;;15.80;99.90;;;;;;5012505;28;20184;-78
2022/08/25 05:08:03;;;;;;;44.40;41.70;;;15.80;99.90;;;;;;5012116;28;20212;-78
2022/08/25 05:10:29;;;;;;;55.60;52.50;;;15.80;99.90;;;;;;5013136;28;20187;-77
2022/08/25 05:12:55;;;;;;;62.80;59.00;;;15.90;99.90;;;;;;5014703;28;20484;-77
2022/08/25 05:18:05;;;;;;;34.30;32.27;;;16.10;99.90;;;;;;5011451;28;20210;-78
2022/08/25 05:20:31;;;;;;;32.63;30.57;;;16.50;99.90;;;;;;5012844;28;20233;-78
2022/08/25 05:22:57;;;;;;;34.60;32.63;;;16.90;99.90;;;;;;5012672;28;20184;-77
2022/08/25 05:25:24;;;;;;;24.03;22.13;;;17.40;99.90;;;;;;5012828;28;20184;-79
2022/08/25 05:27:49;;;;;;;12.27;11.27;;;17.80;99.90;;;;;;5011860;28;20212;-78
2022/08/25 05:30:15;;;;;;;51.00;48.10;;;18.30;99.90;;;;;;5013733;28;20394;-77
2022/08/25 05:32:41;;;;;;;21.67;20.30;;;18.60;99.90;;;;;;5015668;28;20188;-78
2022/08/25 05:35:07;;;;;;;16.42;15.38;;;19.00;99.90;;;;;;5015211;28;20218;-78
2022/08/25 05:37:33;;;;;;;23.55;22.05;;;19.20;99.90;;;;;;5014313;28;20183;-78
2022/08/25 05:39:59;;;;;;;47.55;44.58;;;19.50;99.90;;;;;;5013137;28;20219;-78
2022/08/25 05:42:27;;;;;;;40.47;38.03;;;19.70;99.90;;;;;;5012546;28;20714;-78
2022/08/25 05:44:54;;;;;;;33.38;31.50;;;19.90;99.90;;;;;;5013478;28;20192;-78
2022/08/25 05:47:20;;;;;;;24.50;22.90;;;20.20;99.90;;;;;;5012818;28;20204;-78
2022/08/25 05:49:46;;;;;;;12.82;11.85;;;20.50;99.90;;;;;;5012948;28;20203;-79
2022/08/25 05:52:12;;;;;;;12.45;11.43;;;20.80;99.90;;;;;;5012670;28;20226;-78
2022/08/25 05:54:38;;;;;;;112.38;106.47;;;21.30;99.90;;;;;;5013390;28;20176;-77
2022/08/25 05:57:06;;;;;;;271.58;258.10;;;21.60;99.90;;;;;;5013862;28;20183;-79
2022/08/25 05:59:32;;;;;;;64.50;60.80;;;22.00;99.90;;;;;;5014942;28;20548;-78
2022/08/25 06:04:42;;;;;;;47.15;44.40;;;22.60;99.90;;;;;;5012087;28;20648;-79
2022/08/25 06:07:08;;;;;;;21.85;20.42;;;22.90;99.90;;;;;;5010134;28;20218;-78
2022/08/25 06:09:40;;;;;;;14.48;13.48;;;23.30;99.90;;;;;;5012825;28;20227;-80
2022/08/25 06:12:07;;;;;;;18.45;17.15;;;23.50;99.90;;;;;;5011947;28;20266;-78
2022/08/25 06:14:34;;;;;;;13.98;13.00;;;23.80;99.90;;;;;;5011995;28;20171;-79
2022/08/25 06:17:00;;;;;;;13.45;12.50;;;24.10;99.90;;;;;;5011761;28;20180;-81
2022/08/25 06:19:26;;;;;;;19.92;18.63;;;24.50;99.90;;;;;;5012520;28;20204;-80
2022/08/25 06:21:54;;;;;;;27.35;25.50;;;24.60;99.90;;;;;;5012425;28;20187;-79
2022/08/25 06:24:20;;;;;;;23.10;21.42;;;24.70;99.90;;;;;;5012197;28;20190;-78
2022/08/25 06:26:46;;;;;;;23.88;21.95;;;24.80;99.90;;;;;;5011289;28;20265;-79
2022/08/25 06:29:12;;;;;;;22.65;21.15;;;24.80;99.90;;;;;;5012576;28;20668;-78
2022/08/25 06:31:38;;;;;;;22.25;20.83;;;24.90;99.90;;;;;;5012846;28;20211;-78
2022/08/25 06:34:05;;;;;;;16.63;15.48;;;24.90;99.90;;;;;;5011944;28;20180;-79
2022/08/25 06:36:31;;;;;;;12.75;11.77;;;25.10;99.90;;;;;;5011985;28;20245;-78
2022/08/25 06:38:56;;;;;;;10.35;9.57;;;25.60;99.90;;;;;;5010541;28;20219;-78
2022/08/25 06:41:24;;;;;;;13.02;11.75;;;26.10;99.90;;;;;;5012214;28;20648;-79
2022/08/25 06:43:50;;;;;;;12.25;11.27;;;26.20;99.90;;;;;;5011713;28;20190;-78
2022/08/25 06:46:20;;;;;;;9.20;8.50;;;26.50;99.90;;;;;;5013260;28;20257;-77
2022/08/25 06:48:46;;;;;;;8.77;7.97;;;26.70;99.90;;;;;;5018786;28;20737;-78
2022/08/25 06:51:15;;;;;;;9.52;8.73;;;26.60;99.90;;;;;;5014223;28;20187;-78
2022/08/25 06:53:42;;;;;;;9.43;8.60;;;26.50;99.90;;;;;;5012770;28;20184;-79
2022/08/25 06:56:09;;;;;;;10.02;9.20;;;26.60;99.90;;;;;;5012428;28;20176;-78
2022/08/25 06:58:35;;;;;;;10.95;9.82;;;26.30;99.90;;;;;;5013897;28;20209;-77
2022/08/25 07:01:13;;;;;;;10.27;9.48;;;26.30;99.90;;;;;;5021901;28;20199;-78
2022/08/25 07:03:40;;;;;;;9.25;8.52;;;26.40;99.90;;;;;;5014136;28;20245;-78
2022/08/25 07:06:06;;;;;;;12.13;11.32;;;26.60;99.90;;;;;;5011500;28;20188;-78
2022/08/25 07:08:34;;;;;;;11.70;10.90;;;26.90;99.90;;;;;;5012462;28;20206;-78
2022/08/25 07:11:08;;;;;;;8.15;7.57;;;27.30;99.90;;;;;;5012874;28;20527;-78
2022/08/25 07:13:35;;;;;;;7.70;7.10;;;27.70;99.90;;;;;;5012005;28;20210;-77
2022/08/25 07:16:01;;;;;;;8.43;7.13;;;28.10;99.90;;;;;;5011154;28;20202;-78
2022/08/25 07:18:28;;;;;;;8.73;7.20;;;28.20;99.90;;;;;;5011337;28;20323;-77
2022/08/25 07:20:55;;;;;;;9.13;8.18;;;28.40;99.90;;;;;;5010239;28;20187;-77
2022/08/25 07:23:21;;;;;;;8.20;7.50;;;28.20;99.90;;;;;;5011179;28;20689;-77
2022/08/25 07:25:48;;;;;;;7.70;7.10;;;28.30;99.90;;;;;;5010277;28;20187;-77
2022/08/25 07:28:16;;;;;;;9.48;8.73;;;28.30;99.90;;;;;;5010326;28;20258;-77
2022/08/25 07:30:42;;;;;;;12.05;10.90;;;28.60;99.90;;;;;;5011246;28;20183;-77
2022/08/25 07:33:08;;;;;;;13.55;12.48;;;28.80;99.90;;;;;;5010076;28;20188;-79
2022/08/25 07:35:35;;;;;;;13.30;12.50;;;28.90;99.90;;;;;;5012548;28;20218;-77
2022/08/25 07:38:01;;;;;;;8.65;7.97;;;29.00;99.90;;;;;;5011158;28;20652;-77
2022/08/25 07:40:31;;;;;;;8.75;8.15;;;28.50;99.90;;;;;;5014726;28;20746;-77
2022/08/25 07:43:00;;;;;;;7.95;7.38;;;28.60;99.90;;;;;;5013956;28;20180;-78
2022/08/25 07:45:31;;;;;;;8.45;7.75;;;28.00;99.90;;;;;;5025005;28;20187;-80
2022/08/25 07:48:07;;;;;;;8.10;7.13;;;27.70;99.90;;;;;;5019976;28;20207;-78
2022/08/25 07:50:37;;;;;;;9.45;8.45;;;27.10;99.90;;;;;;5018881;28;20525;-79
2022/08/25 07:53:04;;;;;;;8.13;7.25;;;27.10;99.90;;;;;;5016871;28;20180;-79
2022/08/25 07:55:31;;;;;;;8.50;7.53;;;27.50;99.90;;;;;;5015364;28;20564;-80
2022/08/25 07:57:58;;;;;;;7.40;6.80;;;27.70;99.90;;;;;;5014605;28;20187;-79
2022/08/25 08:00:28;;;;;;;7.65;7.00;;;27.90;99.90;;;;;;5013514;28;20270;-77
2022/08/25 08:02:59;;;;;;;7.93;7.15;;;28.20;99.90;;;;;;5014430;28;20233;-77
2022/08/25 08:05:26;;;;;;;7.80;7.15;;;27.80;99.90;;;;;;5015074;28;20187;-78
2022/08/25 08:07:53;;;;;;;8.52;7.00;;;27.90;99.90;;;;;;5013297;28;20629;-76
2022/08/25 08:10:20;;;;;;;7.18;6.70;;;28.50;99.90;;;;;;5013163;28;20214;-77
2022/08/25 08:12:47;;;;;;;8.38;7.60;;;28.70;99.90;;;;;;5014293;28;20184;-77
2022/08/25 08:15:13;;;;;;;8.43;7.72;;;28.60;99.90;;;;;;5022009;28;20251;-78
2022/08/25 08:17:39;;;;;;;11.00;7.72;;;29.10;99.90;;;;;;5018724;28;20211;-78
2022/08/25 08:20:07;;;;;;;8.25;7.55;;;28.70;99.90;;;;;;5015886;28;20215;-78
2022/08/25 08:22:39;;;;;;;8.52;7.82;;;29.00;99.90;;;;;;5013281;28;20206;-78
2022/08/25 08:25:07;;;;;;;9.93;9.13;;;29.30;99.90;;;;;;5013573;28;20183;-77
2022/08/25 08:27:33;;;;;;;14.43;13.50;;;29.60;99.90;;;;;;5016942;28;20698;-77
2022/08/25 08:30:00;;;;;;;17.98;16.77;;;29.60;99.90;;;;;;5019961;28;20200;-78
2022/08/25 08:32:26;;;;;;;19.40;18.20;;;29.60;99.80;;;;;;5020585;28;20234;-78
2022/08/25 08:34:52;;;;;;;15.52;14.43;;;29.40;99.70;;;;;;5013343;28;20179;-78
2022/08/25 08:37:18;;;;;;;8.32;7.60;;;29.00;99.90;;;;;;5013481;28;20184;-78
2022/08/25 08:39:44;;;;;;;7.60;7.10;;;28.80;99.90;;;;;;5013754;28;20218;-78
2022/08/25 08:42:25;;;;;;;8.30;7.57;;;29.00;99.90;;;;;;5013933;28;20180;-78
2022/08/25 08:45:35;;;;;;;10.40;9.50;;;29.30;99.90;;;;;;5013014;28;20607;-78
2022/08/25 08:48:35;;;;;;;8.85;8.05;;;29.40;99.80;;;;;;4979469;28;20219;-77
2022/08/25 08:51:24;;;;;;;8.25;7.65;;;29.20;99.90;;;;;;5012967;28;20585;-78
2022/08/25 08:53:58;;;;;;;7.45;6.85;;;29.10;99.20;;;;;;5013747;28;20667;-77
2022/08/25 08:56:30;;;;;;;7.78;7.25;;;29.10;99.60;;;;;;5014067;28;20184;-78
2022/08/25 08:59:04;;;;;;;8.32;7.72;;;29.30;98.60;;;;;;5015156;28;20200;-78
2022/08/25 09:01:56;;;;;;;6.70;6.20;;;29.10;98.40;;;;;;5018247;28;20194;-78
2022/08/25 09:04:37;;;;;;;7.25;6.53;;;29.20;98.20;;;;;;5012214;28;20783;-78
2022/08/25 09:07:24;;;;;;;9.55;8.85;;;29.00;98.20;;;;;;5013565;28;20310;-78
2022/08/25 09:09:50;;;;;;;7.35;6.85;;;28.80;98.10;;;;;;5013131;28;20223;-78
2022/08/25 09:12:46;;;;;;;7.05;6.45;;;29.10;98.10;;;;;;5013688;28;20589;-78
2022/08/25 09:18:40;;;;;;;7.13;6.70;;;29.20;97.30;;;;;;5017442;28;20204;-84
2022/08/25 09:21:33;;;;;;;10.43;9.73;;;29.40;97.50;;;;;;5016108;28;20187;-83
2022/08/25 09:24:33;;;;;;;14.07;13.15;;;29.50;96.70;;;;;;5016623;28;20215;-84
2022/08/25 09:27:20;;;;;;;20.23;19.05;;;29.70;96.40;;;;;;5014511;28;20703;-83
2022/08/25 09:29:59;;;;;;;19.17;18.08;;;30.40;95.80;;;;;;5015489;28;20504;-83
2022/08/25 09:32:28;;;;;;;18.60;17.50;;;30.60;95.00;;;;;;5015756;28;20266;-83
2022/08/25 09:34:54;;;;;;;27.88;26.38;;;30.50;94.70;;;;;;5018177;28;20176;-83
2022/08/25 09:37:21;;;;;;;41.15;38.90;;;30.70;94.20;;;;;;5016043;28;20218;-83
2022/08/25 09:39:47;;;;;;;54.00;50.90;;;31.20;93.50;;;;;;5038549;22;20231;-80
2022/08/25 09:42:13;;;;;;;53.55;50.75;;;31.30;93.10;;;;;;5017909;28;20188;-83
2022/08/25 09:44:42;;;;;;;57.78;54.67;;;31.30;92.70;;;;;;5015181;28;20187;-82
2022/08/25 09:47:22;;;;;;;52.53;49.85;;;31.10;92.30;;;;;;5019094;28;20259;-81
2022/08/25 09:49:59;;;;;;;60.78;57.72;;;31.00;91.70;;;;;;5021750;28;20207;-80
2022/08/25 09:52:33;;;;;;;62.00;58.83;;;31.00;91.70;;;;;;5015845;28;20191;-81
2022/08/25 09:55:04;;;;;;;58.35;55.22;;;31.50;91.60;;;;;;5015149;28;20190;-82
2022/08/25 09:57:44;;;;;;;53.17;50.50;;;31.60;91.00;;;;;;5015289;28;20274;-82
2022/08/25 10:00:20;;;;;;;57.33;54.40;;;31.60;90.80;;;;;;5016201;28;20210;-81
2022/08/25 10:03:06;;;;;;;59.50;56.35;;;32.40;89.40;;;;;;5016048;28;20210;-82
2022/08/25 10:05:37;;;;;;;64.85;61.55;;;32.40;88.90;;;;;;5017464;28;20192;-80
2022/08/25 10:08:12;;;;;;;13.55;12.75;;;32.90;87.60;;;;;;5028283;28;20222;-81
2022/08/25 10:10:44;;;;;;;12.55;11.68;;;33.30;83.80;;;;;;5020423;28;20200;-81
2022/08/25 10:13:19;;;;;;;21.63;20.52;;;32.70;83.80;;;;;;5021455;28;20237;-81
2022/08/25 10:15:46;;;;;;;24.85;23.45;;;32.50;85.20;;;;;;5020636;28;20195;-82
2022/08/25 10:18:27;;;;;;;11.30;6.93;;;32.90;85.10;;;;;;5016298;28;20175;-82
2022/08/25 10:21:06;;;;;;;8.88;8.38;;;33.10;82.40;;;;;;5015716;28;20203;-82
2022/08/25 10:23:35;;;;;;;23.58;22.35;;;33.60;80.50;;;;;;5015431;28;20559;-81
2022/08/25 10:26:11;;;;;;;60.47;57.28;;;33.70;79.00;;;;;;5015287;28;20683;-80
2022/08/25 10:29:16;;;;;;;53.53;50.83;;;33.60;77.10;;;;;;5013482;28;20218;-82
2022/08/25 10:32:27;;;;;;;41.97;39.88;;;33.30;78.10;;;;;;5013927;28;20183;-80
2022/08/25 10:34:56;;;;;;;24.95;23.65;;;33.20;78.40;;;;;;5010703;28;20191;-82
2022/08/25 10:37:27;;;;;;;22.05;20.88;;;33.10;78.60;;;;;;5013097;28;20584;-82
2022/08/25 10:40:14;;;;;;;24.80;23.50;;;32.80;78.30;;;;;;5014029;28;20608;-82
2022/08/25 10:42:58;;;;;;;25.15;23.65;;;33.00;77.40;;;;;;5013652;28;20593;-81
2022/08/25 10:45:44;;;;;;;54.03;51.25;;;33.00;77.50;;;;;;5014005;28;20188;-82
2022/08/25 10:48:22;;;;;;;63.58;60.42;;;33.80;76.10;;;;;;5012267;28;20589;-80
2022/08/25 10:50:57;;;;;;;50.33;47.83;;;34.30;72.50;;;;;;5013268;28;20179;-81
2022/08/25 10:53:41;;;;;;;50.53;47.88;;;34.00;73.50;;;;;;5014002;28;20183;-82
2022/08/25 10:56:16;;;;;;;52.33;49.75;;;33.70;74.00;;;;;;5012941;28;20176;-81
2022/08/25 10:59:11;;;;;;;40.95;38.90;;;34.00;73.50;;;;;;5014165;28;20199;-82
2022/08/25 11:02:32;;;;;;;50.10;47.28;;;33.90;73.50;;;;;;5015472;28;20648;-82
2022/08/25 11:05:25;;;;;;;34.45;32.53;;;34.30;72.90;;;;;;4958373;28;20181;-82
2022/08/25 11:08:09;;;;;;;37.35;35.53;;;35.10;69.90;;;;;;4965199;28;20208;-80
2022/08/25 11:11:08;;;;;;;37.22;35.33;;;34.50;71.10;;;;;;5023197;28;20199;-81
2022/08/25 11:13:53;;;;;;;19.95;18.77;;;34.10;70.90;;;;;;5029925;28;20195;-82
2022/08/25 11:16:33;;;;;;;55.58;52.78;;;33.50;71.80;;;;;;5017764;28;20218;-81
2022/08/25 11:19:05;;;;;;;52.80;49.92;;;32.60;74.20;;;;;;5016225;28;20214;-81
2022/08/25 11:21:47;;;;;;;49.88;47.40;;;33.10;74.20;;;;;;5016926;28;20188;-81
2022/08/25 11:24:51;;;;;;;43.35;40.92;;;33.70;72.10;;;;;;5016200;28;20191;-82
2022/08/25 11:27:31;;;;;;;23.30;22.10;;;34.60;71.30;;;;;;5012469;28;20219;-83
2022/08/25 11:30:10;;;;;;;91.57;87.03;;;35.80;68.10;;;;;;5019668;28;20218;-82
2022/08/25 11:32:37;;;;;;;77.45;73.63;;;35.80;65.00;;;;;;5018901;28;20245;-82
2022/08/25 11:35:07;;;;;;;134.07;127.65;;;35.40;65.90;;;;;;5018096;28;20322;-82
2022/08/25 11:37:55;;;;;;;117.90;112.15;;;35.50;65.00;;;;;;5025215;28;20191;-80
2022/08/25 11:40:27;;;;;;;38.95;36.90;;;34.80;64.80;;;;;;5018747;28;20277;-81
2022/08/25 11:43:12;;;;;;;14.38;13.35;;;33.70;67.60;;;;;;5027533;28;20218;-80
2022/08/25 11:45:59;;;;;;;32.33;30.42;;;32.70;70.70;;;;;;5026439;28;20438;-82
2022/08/25 11:48:28;;;;;;;15.45;14.65;;;32.80;71.60;;;;;;5031161;28;20219;-80
2022/08/25 11:51:02;;;;;;;12.40;11.23;;;34.00;68.20;;;;;;5024250;28;20176;-81
2022/08/25 11:53:39;;;;;;;65.65;61.67;;;34.90;66.50;;;;;;5018874;28;20183;-82
2022/08/25 11:56:27;;;;;;;194.00;184.68;;;36.10;63.80;;;;;;5017374;28;20310;-81
2022/08/25 11:58:53;;;;;;;62.13;58.95;;;35.30;62.60;;;;;;5015761;28;20204;-81
2022/08/25 12:01:38;;;;;;;122.00;115.75;;;34.80;64.30;;;;;;5019214;28;20186;-81
2022/08/25 12:04:32;;;;;;;329.95;312.95;;;35.60;63.60;;;;;;5024024;28;20180;-82
2022/08/25 12:07:20;;;;;;;479.40;452.17;;;36.90;60.40;;;;;;5017325;28;20758;-82
2022/08/25 12:09:49;;;;;;;391.05;370.23;;;36.70;58.70;;;;;;5019385;28;20232;-80
2022/08/25 12:12:54;;;;;;;175.15;166.45;;;34.90;62.00;;;;;;5017140;28;20238;-81
2022/08/25 12:15:41;;;;;;;135.50;128.85;;;34.90;63.50;;;;;;5017725;28;20194;-81
2022/08/25 12:18:12;;;;;;;14.85;14.10;;;34.00;62.90;;;;;;5015862;28;20211;-81
2022/08/25 12:20:55;;;;;;;6.53;6.22;;;33.10;65.10;;;;;;5019198;28;20210;-80
2022/08/25 12:23:30;;;;;;;7.05;6.65;;;33.70;64.10;;;;;;5022063;28;20558;-80
2022/08/25 12:26:19;;;;;;;13.48;12.77;;;34.70;63.10;;;;;;5017106;28;20183;-81
2022/08/25 12:29:03;;;;;;;68.75;65.18;;;35.20;62.50;;;;;;5014791;28;20310;-79
2022/08/25 12:31:58;;;;;;;322.48;305.85;;;36.20;59.80;;;;;;5015553;28;20234;-81
2022/08/25 12:34:50;;;;;;;423.60;400.60;;;36.80;58.80;;;;;;5015587;28;20230;-81
2022/08/25 12:37:19;;;;;;;388.65;367.88;;;37.30;57.90;;;;;;5014967;28;20191;-81
2022/08/25 12:39:48;;;;;;;466.67;439.95;;;36.10;57.80;;;;;;5015906;28;20242;-81
2022/08/25 12:42:28;;;;;;;291.08;276.30;;;36.80;57.60;;;;;;5032591;28;20188;-79
2022/08/25 12:45:13;;;;;;;229.50;218.32;;;38.40;55.40;;;;;;5037393;28;20211;-79
2022/08/25 12:47:43;;;;;;;305.55;290.08;;;39.30;52.10;;;;;;5025729;28;20254;-78
2022/08/25 12:50:40;;;;;;;312.15;296.20;;;38.00;53.70;;;;;;5027955;28;20663;-80
2022/08/25 12:53:35;;;;;;;248.40;236.13;;;37.90;54.20;;;;;;5021361;28;20178;-81
2022/08/25 12:56:23;;;;;;;236.40;224.90;;;36.80;54.20;;;;;;5022584;28;20184;-82
2022/08/25 12:59:12;;;;;;;231.60;220.30;;;35.90;54.30;;;;;;5019531;28;20227;-83
2022/08/25 13:01:50;;;;;;;313.00;296.98;;;34.70;55.90;;;;;;5026019;28;20532;-81